createdAt,value
2018-12-16T00:00:19.080Z,0.40
2018-12-16T00:02:50.303Z,0.50
2018-12-16T00:05:23.119Z,0.50
2018-12-16T00:07:58.814Z,0.50
2018-12-16T00:10:33.911Z,0.50
2018-12-16T00:13:08.722Z,0.50
2018-12-16T00:15:40.118Z,0.60
2018-12-16T00:18:10.689Z,0.60
2018-12-16T00:20:40.068Z,0.60
2018-12-16T00:23:14.989Z,0.60
2018-12-16T00:25:44.384Z,0.60
2018-12-16T00:28:17.617Z,0.60
2018-12-16T00:30:47.054Z,0.60
2018-12-16T00:33:16.271Z,0.60
2018-12-16T00:35:47.304Z,0.60
2018-12-16T00:38:17.702Z,0.70
2018-12-16T00:40:47.671Z,0.70
2018-12-16T00:43:20.156Z,0.70
2018-12-16T00:45:49.570Z,0.70
2018-12-16T00:48:20.394Z,0.70
2018-12-16T00:50:49.798Z,0.70
2018-12-16T00:53:20.030Z,0.70
2018-12-16T00:55:53.195Z,0.60
2018-12-16T00:58:25.650Z,0.60
2018-12-16T01:01:00.613Z,0.60
2018-12-16T01:03:32.715Z,0.60
2018-12-16T01:06:08.738Z,0.60
2018-12-16T01:08:40.162Z,0.60
2018-12-16T01:11:14.915Z,0.60
2018-12-16T01:13:44.510Z,0.60
2018-12-16T01:16:20.174Z,0.60
2018-12-16T01:18:51.374Z,0.60
2018-12-16T01:21:26.670Z,0.60
2018-12-16T01:23:57.634Z,0.60
2018-12-16T01:26:32.189Z,0.60
2018-12-16T01:29:07.138Z,0.70
2018-12-16T01:31:40.710Z,0.70
2018-12-16T01:34:13.686Z,0.70
2018-12-16T01:36:42.704Z,0.70
2018-12-16T01:39:18.474Z,0.60
2018-12-16T01:42:00.016Z,0.60
2018-12-16T01:44:34.894Z,0.50
2018-12-16T01:47:07.199Z,0.50
2018-12-16T01:49:38.006Z,0.50
2018-12-16T01:52:13.659Z,0.50
2018-12-16T01:54:42.986Z,0.50
2018-12-16T01:57:15.714Z,0.40
2018-12-16T01:59:48.577Z,0.40
2018-12-16T02:02:23.470Z,0.40
2018-12-16T02:04:53.246Z,0.40
2018-12-16T02:07:22.646Z,0.40
2018-12-16T02:09:58.562Z,0.40
2018-12-16T02:12:29.350Z,0.30
2018-12-16T02:14:59.137Z,0.40
2018-12-16T02:17:32.866Z,0.30
2018-12-16T02:20:07.752Z,0.40
2018-12-16T02:22:39.526Z,0.30
2018-12-16T02:25:12.338Z,0.30
2018-12-16T02:27:41.864Z,0.20
2018-12-16T02:30:15.929Z,0.20
2018-12-16T02:32:48.250Z,0.20
2018-12-16T02:35:17.654Z,0.10
2018-12-16T02:37:47.002Z,0.20
2018-12-16T02:40:19.992Z,0.20
2018-12-16T02:42:55.074Z,0.20
2018-12-16T02:45:27.892Z,0.20
2018-12-16T02:48:02.578Z,0.20
2018-12-16T02:50:37.470Z,0.20
2018-12-16T02:53:08.394Z,0.20
2018-12-16T02:55:41.552Z,0.20
2018-12-16T02:58:16.358Z,0.30
2018-12-16T03:00:45.362Z,0.20
2018-12-16T03:03:18.934Z,0.30
2018-12-16T03:05:52.428Z,0.20
2018-12-16T03:08:27.223Z,0.20
2018-12-16T03:11:00.093Z,0.30
2018-12-16T03:13:32.303Z,0.20
2018-12-16T03:16:03.263Z,0.20
2018-12-16T03:18:38.386Z,0.20
2018-12-16T03:21:08.037Z,0.20
2018-12-16T03:23:41.183Z,0.20
2018-12-16T03:26:13.450Z,0.20
2018-12-16T03:28:44.599Z,0.20
2018-12-16T03:31:17.648Z,0.20
2018-12-16T03:33:49.746Z,0.30
2018-12-16T03:36:22.959Z,0.30
2018-12-16T03:38:55.039Z,0.40
2018-12-16T03:41:30.143Z,0.40
2018-12-16T03:44:03.807Z,0.40
2018-12-16T03:46:33.827Z,0.50
2018-12-16T03:49:03.214Z,0.50
2018-12-16T03:51:38.418Z,0.50
2018-12-16T03:54:11.123Z,0.50
2018-12-16T03:56:42.683Z,0.50
2018-12-16T03:59:18.966Z,0.50
2018-12-16T04:01:57.702Z,0.50
2018-12-16T04:04:32.163Z,0.50
2018-12-16T04:07:07.620Z,0.50
2018-12-16T04:09:36.623Z,0.50
2018-12-16T04:12:10.114Z,0.50
2018-12-16T04:14:47.428Z,0.50
2018-12-16T04:17:16.441Z,0.50
2018-12-16T04:19:50.939Z,0.40
2018-12-16T04:22:23.917Z,0.40
2018-12-16T04:24:56.119Z,0.50
2018-12-16T04:27:29.269Z,0.50
2018-12-16T04:30:01.706Z,0.40
2018-12-16T04:32:33.886Z,0.40
2018-12-16T04:35:05.996Z,0.40
2018-12-16T04:37:43.435Z,0.40
2018-12-16T04:40:18.132Z,0.50
2018-12-16T04:42:50.698Z,0.50
2018-12-16T04:45:21.231Z,0.50
2018-12-16T04:47:56.534Z,0.60
2018-12-16T04:50:25.519Z,0.60
2018-12-16T04:52:54.506Z,0.60
2018-12-16T04:55:23.498Z,0.60
2018-12-16T04:57:52.879Z,0.60
2018-12-16T05:00:27.820Z,0.60
2018-12-16T05:03:02.402Z,0.60
2018-12-16T05:05:37.190Z,0.70
2018-12-16T05:08:12.227Z,0.70
2018-12-16T05:10:44.942Z,0.80
2018-12-16T05:13:15.878Z,0.70
2018-12-16T05:15:47.822Z,0.80
2018-12-16T05:18:22.698Z,0.70
2018-12-16T05:20:52.334Z,0.70
2018-12-16T05:23:25.152Z,0.80
2018-12-16T05:25:56.091Z,0.90
2018-12-16T05:28:26.940Z,0.80
2018-12-16T05:30:56.335Z,0.80
2018-12-16T05:33:26.516Z,0.70
2018-12-16T05:36:01.962Z,0.80
2018-12-16T05:38:30.962Z,0.80
2018-12-16T05:41:03.654Z,0.80
2018-12-16T05:43:36.478Z,0.80
2018-12-16T05:46:07.682Z,0.80
2018-12-16T05:48:42.598Z,0.90
2018-12-16T05:51:15.461Z,1.00
2018-12-16T05:53:48.695Z,1.00
2018-12-16T05:56:20.840Z,0.90
2018-12-16T05:58:55.934Z,0.90
2018-12-16T06:01:28.758Z,0.90
2018-12-16T06:03:57.750Z,0.80
2018-12-16T06:06:32.590Z,0.80
2018-12-16T06:09:04.402Z,0.80
2018-12-16T06:11:36.802Z,1.00
2018-12-16T06:14:09.143Z,1.10
2018-12-16T06:16:44.103Z,1.00
2018-12-16T06:19:16.678Z,0.90
2018-12-16T06:21:46.722Z,0.90
2018-12-16T06:24:17.387Z,0.90
2018-12-16T06:26:53.034Z,0.80
2018-12-16T06:29:22.045Z,0.90
2018-12-16T06:31:55.624Z,1.00
2018-12-16T06:34:27.883Z,1.00
2018-12-16T06:36:58.862Z,1.00
2018-12-16T06:39:33.826Z,1.00
2018-12-16T06:42:06.638Z,1.00
2018-12-16T06:44:39.818Z,1.10
2018-12-16T06:47:15.201Z,1.00
2018-12-16T06:49:44.271Z,1.00
2018-12-16T06:52:19.642Z,1.00
2018-12-16T06:54:49.030Z,1.00
2018-12-16T06:57:21.731Z,1.00
2018-12-16T06:59:56.870Z,1.00
2018-12-16T07:02:28.079Z,1.10
2018-12-16T07:05:01.431Z,1.10
2018-12-16T07:07:34.886Z,1.10
2018-12-16T07:10:07.814Z,1.00
2018-12-16T07:12:37.471Z,1.10
2018-12-16T07:15:07.317Z,1.10
2018-12-16T07:17:37.570Z,1.10
2018-12-16T07:20:09.601Z,1.10
2018-12-16T07:22:47.091Z,1.10
2018-12-16T07:25:18.255Z,1.10
2018-12-16T07:27:50.802Z,1.10
2018-12-16T07:30:24.319Z,1.10
2018-12-16T07:32:53.746Z,1.20
2018-12-16T07:35:22.902Z,1.20
2018-12-16T07:37:57.387Z,1.20
2018-12-16T07:40:32.535Z,1.20
2018-12-16T07:43:03.511Z,1.20
2018-12-16T07:45:39.239Z,1.20
2018-12-16T07:50:40.842Z,1.30
2018-12-16T07:53:10.230Z,1.30
2018-12-16T07:55:42.838Z,1.30
2018-12-16T07:58:12.050Z,1.30
2018-12-16T08:00:41.698Z,1.30
2018-12-16T08:03:12.342Z,1.30
2018-12-16T08:05:41.813Z,1.30
2018-12-16T08:08:14.037Z,1.30
2018-12-16T08:10:44.826Z,1.40
2018-12-16T08:13:19.295Z,1.40
2018-12-16T08:15:51.383Z,1.50
2018-12-16T08:18:20.974Z,1.50
2018-12-16T08:20:54.100Z,1.50
2018-12-16T08:23:27.275Z,1.50
2018-12-16T08:26:02.368Z,1.50
2018-12-16T08:28:37.150Z,1.60
2018-12-16T08:31:12.122Z,1.60
2018-12-16T08:33:41.757Z,1.60
2018-12-16T08:36:16.710Z,1.60
2018-12-16T08:38:49.186Z,1.60
2018-12-16T08:41:18.570Z,1.60
2018-12-16T08:43:53.610Z,1.60
2018-12-16T08:46:28.899Z,1.70
2018-12-16T08:49:01.123Z,1.70
2018-12-16T08:51:36.330Z,1.70
2018-12-16T08:54:09.531Z,1.70
2018-12-16T08:56:39.118Z,1.60
2018-12-16T08:59:12.018Z,1.60
2018-12-16T09:01:41.211Z,1.70
2018-12-16T09:04:14.253Z,1.70
2018-12-16T09:06:43.251Z,1.70
2018-12-16T09:09:19.337Z,1.70
2018-12-16T09:11:51.372Z,1.80
2018-12-16T09:14:26.752Z,1.90
2018-12-16T09:16:59.054Z,1.90
2018-12-16T09:19:34.867Z,1.80
2018-12-16T09:22:06.202Z,1.90
2018-12-16T09:24:37.749Z,1.90
2018-12-16T09:27:10.278Z,1.80
2018-12-16T09:29:40.783Z,1.80
2018-12-16T09:32:10.199Z,1.90
2018-12-16T09:34:41.656Z,1.90
2018-12-16T09:37:11.018Z,1.90
2018-12-16T09:39:46.178Z,1.90
2018-12-16T09:42:19.211Z,2.00
2018-12-16T09:44:52.205Z,2.00
2018-12-16T09:47:27.110Z,2.00
2018-12-16T09:50:01.854Z,1.90
2018-12-16T09:52:34.546Z,1.90
2018-12-16T09:55:10.005Z,2.00
2018-12-16T09:57:43.025Z,2.00
2018-12-16T10:00:14.606Z,1.90
2018-12-16T10:02:46.938Z,2.00
2018-12-16T10:05:22.814Z,2.00
2018-12-16T10:07:51.802Z,2.00
2018-12-16T10:10:27.042Z,2.00
2018-12-16T10:13:02.702Z,1.90
2018-12-16T10:15:37.150Z,2.00
2018-12-16T10:18:09.247Z,2.10
2018-12-16T10:20:38.255Z,2.20
2018-12-16T10:23:09.295Z,2.10
2018-12-16T10:25:38.290Z,2.10
2018-12-16T10:28:08.734Z,2.10
2018-12-16T10:30:43.958Z,2.20
2018-12-16T10:33:16.867Z,2.20
2018-12-16T10:35:46.282Z,2.20
2018-12-16T10:38:19.262Z,2.20
2018-12-16T10:40:50.694Z,2.20
2018-12-16T10:43:19.678Z,2.20
2018-12-16T10:45:52.435Z,2.30
2018-12-16T10:48:23.063Z,2.40
2018-12-16T10:50:55.138Z,2.40
2018-12-16T10:53:26.339Z,2.40
2018-12-16T10:55:58.894Z,2.40
2018-12-16T10:58:31.882Z,2.50
2018-12-16T11:01:10.885Z,2.50
2018-12-16T11:03:43.586Z,2.60
2018-12-16T11:06:13.577Z,2.70
2018-12-16T11:08:44.783Z,2.70
2018-12-16T11:11:13.784Z,2.70
2018-12-16T11:13:44.779Z,2.50
2018-12-16T11:16:14.459Z,2.60
2018-12-16T11:18:49.942Z,2.60
2018-12-16T11:21:24.663Z,2.50
2018-12-16T11:23:58.229Z,2.60
2018-12-16T11:26:31.403Z,2.60
2018-12-16T11:29:05.079Z,2.60
2018-12-16T11:31:34.918Z,2.70
2018-12-16T11:34:06.393Z,2.60
2018-12-16T11:36:40.986Z,2.50
2018-12-16T11:39:10.809Z,2.50
2018-12-16T11:41:40.943Z,2.50
2018-12-16T11:44:12.971Z,2.50
2018-12-16T11:46:51.886Z,2.60
2018-12-16T11:49:24.409Z,2.70
2018-12-16T11:51:57.646Z,2.80
2018-12-16T11:54:30.838Z,2.80
2018-12-16T11:57:00.226Z,2.70
2018-12-16T11:59:29.634Z,2.60
2018-12-16T12:02:02.241Z,2.60
2018-12-16T12:04:34.666Z,2.60
2018-12-16T12:07:05.890Z,2.60
2018-12-16T12:09:37.651Z,2.70
2018-12-16T12:12:10.945Z,2.80
2018-12-16T12:14:43.366Z,2.80
2018-12-16T12:17:19.462Z,2.90
2018-12-16T12:19:50.280Z,2.90
2018-12-16T12:22:19.790Z,2.90
2018-12-16T12:24:55.516Z,2.80
2018-12-16T12:27:28.582Z,2.90
2018-12-16T12:30:00.742Z,3.00
2018-12-16T12:32:29.742Z,3.00
2018-12-16T12:35:03.046Z,3.10
2018-12-16T12:37:38.818Z,3.00
2018-12-16T12:40:12.506Z,2.90
2018-12-16T12:42:44.970Z,2.80
2018-12-16T12:45:17.530Z,2.90
2018-12-16T12:47:46.954Z,3.00
2018-12-16T12:50:19.775Z,3.00
2018-12-16T12:52:48.770Z,3.00
2018-12-16T12:55:26.609Z,3.00
2018-12-16T12:57:52.425Z,3.00
2018-12-16T13:00:27.526Z,3.00
2018-12-16T13:02:57.396Z,3.00
2018-12-16T13:05:36.941Z,3.00
2018-12-16T13:08:06.411Z,2.90
2018-12-16T13:10:36.886Z,2.90
2018-12-16T13:13:07.686Z,2.90
2018-12-16T13:15:41.078Z,3.00
2018-12-16T13:18:16.222Z,3.10
2018-12-16T13:20:49.849Z,3.20
2018-12-16T13:23:22.634Z,3.20
2018-12-16T13:26:08.146Z,3.30
2018-12-16T13:28:40.691Z,3.30
2018-12-16T13:31:12.894Z,3.30
2018-12-16T13:33:43.666Z,3.30
2018-12-16T13:36:13.397Z,3.20
2018-12-16T13:38:42.750Z,3.20
2018-12-16T13:41:15.562Z,3.30
2018-12-16T13:43:51.914Z,3.30
2018-12-16T13:46:25.778Z,3.20
2018-12-16T13:48:56.650Z,3.20
2018-12-16T13:51:26.042Z,3.30
2018-12-16T13:53:56.759Z,3.40
2018-12-16T13:56:28.472Z,3.30
2018-12-16T13:59:00.838Z,3.30
2018-12-16T14:01:31.721Z,3.20
2018-12-16T14:04:04.378Z,3.20
2018-12-16T14:06:39.894Z,3.10
2018-12-16T14:09:15.735Z,3.10
2018-12-16T14:11:46.054Z,3.10
2018-12-16T14:14:18.590Z,3.10
2018-12-16T14:16:51.935Z,3.10
2018-12-16T14:19:21.017Z,3.10
2018-12-16T14:21:54.002Z,3.10
2018-12-16T14:24:27.212Z,3.20
2018-12-16T14:26:58.719Z,3.20
2018-12-16T14:29:29.727Z,3.30
2018-12-16T14:32:04.686Z,3.10
2018-12-16T14:34:39.144Z,3.00
2018-12-16T14:37:14.295Z,3.00
2018-12-16T14:39:45.266Z,3.10
2018-12-16T14:42:20.590Z,3.10
2018-12-16T14:44:53.338Z,3.10
2018-12-16T14:47:29.647Z,3.10
2018-12-16T14:50:03.004Z,3.10
2018-12-16T14:52:32.772Z,3.20
2018-12-16T14:55:02.170Z,3.20
2018-12-16T14:57:38.262Z,3.30
2018-12-16T15:00:14.023Z,3.30
2018-12-16T15:02:43.483Z,3.40
2018-12-16T15:05:15.654Z,3.40
2018-12-16T15:07:44.722Z,3.30
2018-12-16T15:10:20.452Z,3.30
2018-12-16T15:12:49.959Z,3.40
2018-12-16T15:15:20.046Z,3.40
2018-12-16T15:17:54.502Z,3.50
2018-12-16T15:20:23.934Z,3.40
2018-12-16T15:22:52.922Z,3.20
2018-12-16T15:25:25.999Z,3.20
2018-12-16T15:27:58.830Z,3.30
2018-12-16T15:30:33.811Z,3.30
2018-12-16T15:33:06.040Z,3.30
2018-12-16T15:35:41.034Z,3.30
2018-12-16T15:38:15.063Z,3.20
2018-12-16T15:40:47.991Z,3.20
2018-12-16T15:43:20.531Z,3.20
2018-12-16T15:45:56.522Z,3.30
2018-12-16T15:48:31.753Z,3.20
2018-12-16T15:51:05.358Z,3.20
2018-12-16T15:53:34.990Z,3.20
2018-12-16T15:56:12.250Z,3.30
2018-12-16T15:58:47.986Z,3.30
2018-12-16T16:01:21.342Z,3.30
2018-12-16T16:03:52.138Z,3.20
2018-12-16T16:06:21.134Z,3.20
2018-12-16T16:08:50.154Z,3.20
2018-12-16T16:11:19.570Z,3.20
2018-12-16T16:13:51.046Z,3.20
2018-12-16T16:16:23.566Z,3.10
2018-12-16T16:18:59.203Z,3.10
2018-12-16T16:21:30.107Z,3.10
2018-12-16T16:24:01.038Z,3.20
2018-12-16T16:26:32.634Z,3.20
2018-12-16T16:29:08.308Z,3.10
2018-12-16T16:31:37.698Z,3.10
2018-12-16T16:34:06.706Z,3.10
2018-12-16T16:36:36.095Z,3.10
2018-12-16T16:39:09.079Z,3.10
2018-12-16T16:41:38.498Z,3.10
2018-12-16T16:44:08.058Z,3.10
2018-12-16T16:46:41.406Z,3.00
2018-12-16T16:49:15.554Z,3.00
2018-12-16T16:51:51.339Z,3.00
2018-12-16T16:54:25.018Z,3.10
2018-12-16T16:57:00.369Z,3.10
2018-12-16T16:59:30.587Z,3.10
2018-12-16T17:02:01.771Z,3.10
2018-12-16T17:04:30.758Z,3.20
2018-12-16T17:07:04.464Z,3.10
2018-12-16T17:09:39.247Z,3.20
2018-12-16T17:12:13.879Z,3.20
2018-12-16T17:14:46.509Z,3.20
2018-12-16T17:17:21.574Z,3.30
2018-12-16T17:19:50.570Z,3.30
2018-12-16T17:22:22.751Z,3.30
2018-12-16T17:24:56.238Z,3.30
2018-12-16T17:27:28.662Z,3.30
2018-12-16T17:29:58.046Z,3.30
2018-12-16T17:32:29.314Z,3.30
2018-12-16T17:35:00.335Z,3.40
2018-12-16T17:37:29.966Z,3.40
2018-12-16T17:40:02.903Z,3.40
2018-12-16T17:42:33.334Z,3.40
2018-12-16T17:45:08.486Z,3.40
2018-12-16T17:47:43.399Z,3.50
2018-12-16T17:50:15.826Z,3.40
2018-12-16T17:52:45.166Z,3.30
2018-12-16T17:55:14.290Z,3.40
2018-12-16T17:57:47.591Z,3.30
2018-12-16T18:00:21.178Z,3.30
2018-12-16T18:02:50.263Z,3.30
2018-12-16T18:05:24.114Z,3.30
2018-12-16T18:07:59.562Z,3.40
2018-12-16T18:10:33.070Z,3.40
2018-12-16T18:13:03.486Z,3.30
2018-12-16T18:15:37.191Z,3.30
2018-12-16T18:18:10.355Z,3.40
2018-12-16T18:20:42.859Z,3.40
2018-12-16T18:23:14.241Z,3.40
2018-12-16T18:25:49.050Z,3.40
2018-12-16T18:28:21.820Z,3.40
2018-12-16T18:30:56.834Z,3.40
2018-12-16T18:33:26.152Z,3.50
2018-12-16T18:35:57.210Z,3.50
2018-12-16T18:38:27.950Z,3.50
2018-12-16T18:40:57.785Z,3.40
2018-12-16T18:43:33.666Z,3.40
2018-12-16T18:46:06.769Z,3.40
2018-12-16T18:48:39.637Z,3.40
2018-12-16T18:51:08.750Z,3.30
2018-12-16T18:53:39.934Z,3.30
2018-12-16T18:56:12.286Z,3.30
2018-12-16T18:58:42.274Z,3.30
2018-12-16T19:01:11.734Z,3.40
2018-12-16T19:03:44.204Z,3.40
2018-12-16T19:06:17.598Z,3.50
2018-12-16T19:08:51.200Z,3.50
2018-12-16T19:11:26.813Z,3.60
2018-12-16T19:13:59.267Z,3.70
2018-12-16T19:16:34.474Z,3.60
2018-12-16T19:19:05.711Z,3.60
2018-12-16T19:21:38.738Z,3.60
2018-12-16T19:24:13.295Z,3.60
2018-12-16T19:26:44.495Z,3.70
2018-12-16T19:29:19.282Z,3.70
2018-12-16T19:31:54.341Z,3.70
2018-12-16T19:34:23.781Z,3.70
2018-12-16T19:36:53.421Z,3.80
2018-12-16T19:39:28.282Z,3.80
2018-12-16T19:42:00.626Z,3.80
2018-12-16T19:44:31.946Z,3.80
2018-12-16T19:47:07.058Z,3.80
2018-12-16T19:49:40.035Z,3.70
2018-12-16T19:52:09.450Z,3.60
2018-12-16T19:54:40.682Z,3.70
2018-12-16T19:57:14.265Z,3.70
2018-12-16T19:59:44.502Z,3.70
2018-12-16T20:02:17.023Z,3.70
2018-12-16T20:04:57.236Z,3.70
2018-12-16T20:07:26.270Z,3.60
2018-12-16T20:12:30.072Z,3.70
2018-12-16T20:15:06.046Z,3.70
2018-12-16T20:17:35.167Z,3.80
2018-12-16T20:20:10.362Z,3.80
2018-12-16T20:22:41.274Z,3.90
2018-12-16T20:25:11.670Z,3.80
2018-12-16T20:27:46.714Z,3.70
2018-12-16T20:30:22.202Z,3.70
2018-12-16T20:32:53.043Z,3.70
2018-12-16T20:35:24.462Z,3.70
2018-12-16T20:37:56.678Z,3.70
2018-12-16T20:40:30.479Z,3.70
2018-12-16T20:43:00.982Z,3.70
2018-12-16T20:45:36.433Z,3.70
2018-12-16T20:48:09.677Z,3.70
2018-12-16T20:50:45.290Z,3.70
2018-12-16T20:53:15.339Z,3.70
2018-12-16T20:55:48.254Z,3.70
2018-12-16T20:58:18.970Z,3.70
2018-12-16T21:00:50.310Z,3.70
2018-12-16T21:03:25.461Z,3.70
2018-12-16T21:05:58.678Z,3.70
2018-12-16T21:08:31.544Z,3.80
2018-12-16T21:13:35.569Z,3.80
2018-12-16T21:16:11.486Z,3.80
2018-12-16T21:18:42.795Z,3.80
2018-12-16T21:21:17.646Z,3.80
2018-12-16T21:23:51.398Z,3.90
2018-12-16T21:26:22.156Z,3.80
2018-12-16T21:28:51.182Z,3.80
2018-12-16T21:31:27.027Z,3.80
2018-12-16T21:33:56.409Z,3.80
2018-12-16T21:36:29.129Z,3.80
2018-12-16T21:38:58.226Z,3.80
2018-12-16T21:41:30.590Z,3.70
2018-12-16T21:44:00.003Z,3.70
2018-12-16T21:46:30.850Z,3.70
2018-12-16T21:49:03.910Z,3.70
2018-12-16T21:51:35.406Z,3.70
2018-12-16T21:54:04.811Z,3.70
2018-12-16T21:56:38.335Z,3.70
2018-12-16T21:59:12.017Z,3.70
2018-12-16T22:01:45.015Z,3.70
2018-12-16T22:04:17.691Z,3.70
2018-12-16T22:06:47.070Z,3.80
2018-12-16T22:09:18.101Z,3.80
2018-12-16T22:11:48.174Z,3.80
2018-12-16T22:14:23.059Z,3.80
2018-12-16T22:16:55.466Z,3.80
2018-12-16T22:19:28.274Z,3.80
2018-12-16T22:21:57.674Z,3.90
2018-12-16T22:24:30.457Z,3.90
2018-12-16T22:27:05.426Z,3.80
2018-12-16T22:29:37.682Z,3.80
2018-12-16T22:32:11.362Z,3.70
2018-12-16T22:34:44.662Z,3.80
2018-12-16T22:37:14.342Z,3.80
2018-12-16T22:39:49.770Z,3.80
2018-12-16T22:42:22.066Z,3.80
2018-12-16T22:44:51.073Z,3.80
2018-12-16T22:47:20.058Z,3.70
2018-12-16T22:49:49.223Z,3.70
2018-12-16T22:52:19.446Z,3.60
2018-12-16T22:54:51.090Z,3.60
2018-12-16T22:57:25.787Z,3.60
2018-12-16T22:59:56.034Z,3.70
2018-12-16T23:02:30.991Z,3.70
2018-12-16T23:05:06.139Z,3.70
2018-12-16T23:07:37.334Z,3.80
2018-12-16T23:10:10.838Z,3.80
2018-12-16T23:12:46.510Z,3.80
2018-12-16T23:15:19.670Z,3.80
2018-12-16T23:17:54.982Z,3.80
2018-12-16T23:20:29.520Z,3.80
2018-12-16T23:23:05.051Z,3.80
2018-12-16T23:25:36.318Z,3.80
2018-12-16T23:28:11.375Z,3.70
2018-12-16T23:30:46.726Z,3.70
2018-12-16T23:33:19.229Z,3.70
2018-12-16T23:35:48.742Z,3.80
2018-12-16T23:38:19.790Z,3.70
2018-12-16T23:40:52.827Z,3.70
2018-12-16T23:43:22.326Z,3.70
2018-12-16T23:45:58.270Z,3.60
2018-12-16T23:48:32.803Z,3.50
2018-12-16T23:51:05.071Z,3.50
2018-12-16T23:53:34.293Z,3.50
2018-12-16T23:56:03.915Z,3.50
2018-12-16T23:58:36.820Z,3.50
